createdAt,value
2024-01-05T00:00:02.890Z,99551.66
2024-01-05T00:02:30.479Z,99551.78
2024-01-05T00:04:57.995Z,99548.16
2024-01-05T00:07:25.519Z,99544.91
2024-01-05T00:09:53.037Z,99542.94
2024-01-05T00:12:20.524Z,99538.28
2024-01-05T00:14:49.391Z,99537.19
2024-01-05T00:17:17.078Z,99535.81
2024-01-05T00:19:44.613Z,99530.25
2024-01-05T00:22:12.195Z,99523.13
2024-01-05T00:24:39.710Z,99523.53
2024-01-05T00:27:07.249Z,99513.63
2024-01-05T00:29:34.741Z,99503.50
2024-01-05T00:32:03.621Z,99504.53
2024-01-05T00:34:31.179Z,99503.19
2024-01-05T00:36:58.724Z,99502.75
2024-01-05T00:39:26.271Z,99494.22
2024-01-05T00:41:53.815Z,99488.34
2024-01-05T00:44:21.377Z,99482.88
2024-01-05T00:46:48.939Z,99482.97
2024-01-05T00:49:18.127Z,99484.88
2024-01-05T00:51:45.705Z,99473.03
2024-01-05T00:54:13.299Z,99472.66
2024-01-05T00:56:41.009Z,99467.38
2024-01-05T00:59:08.666Z,99468.06
2024-01-05T01:01:36.316Z,99468.78
2024-01-05T01:04:04.084Z,99461.59
2024-01-05T01:06:33.028Z,99459.63
2024-01-05T01:09:00.660Z,99462.19
2024-01-05T01:11:28.871Z,99462.06
2024-01-05T01:13:56.612Z,99451.66
2024-01-05T01:16:24.240Z,99449.81
2024-01-05T01:18:52.105Z,99442.25
2024-01-05T01:21:19.751Z,99441.66
2024-01-05T01:23:48.603Z,99445.88
2024-01-05T01:26:16.106Z,99444.91
2024-01-05T01:28:43.698Z,99448.59
2024-01-05T01:31:11.288Z,99448.13
2024-01-05T01:33:39.844Z,99453.03
2024-01-05T01:36:08.100Z,99460.16
2024-01-05T01:38:35.945Z,99459.69
2024-01-05T01:41:04.848Z,99453.09
2024-01-05T01:43:32.477Z,99454.03
2024-01-05T01:46:02.644Z,99443.22
2024-01-05T01:48:31.796Z,99454.47
2024-01-05T01:51:00.363Z,99431.25
2024-01-05T01:53:28.996Z,99434.38
2024-01-05T01:55:57.724Z,99434.00
2024-01-05T01:58:27.404Z,99434.44
2024-01-05T02:00:55.126Z,99439.22
2024-01-05T02:03:22.894Z,99431.03
2024-01-05T02:05:50.471Z,99433.94
2024-01-05T02:08:18.164Z,99429.34
2024-01-05T02:10:45.676Z,99421.97
2024-01-05T02:13:13.363Z,99426.56
2024-01-05T02:15:42.210Z,99411.31
2024-01-05T02:18:13.975Z,99413.16
2024-01-05T02:20:41.662Z,99406.59
2024-01-05T02:23:12.146Z,99401.50
2024-01-05T02:25:41.672Z,99399.56
2024-01-05T02:28:09.204Z,99385.38
2024-01-05T02:30:36.731Z,99375.00
2024-01-05T02:33:04.672Z,99377.63
2024-01-05T02:35:32.206Z,99373.00
2024-01-05T02:37:59.707Z,99374.66
2024-01-05T02:40:27.206Z,99375.41
2024-01-05T02:42:56.048Z,99374.97
2024-01-05T02:45:23.724Z,99374.22
2024-01-05T02:47:51.479Z,99367.63
2024-01-05T02:50:19.586Z,99363.16
2024-01-05T02:52:47.613Z,99359.59
2024-01-05T02:55:15.446Z,99354.88
2024-01-05T02:57:43.184Z,99347.41
2024-01-05T03:00:13.128Z,99352.06
2024-01-05T03:02:40.645Z,99350.38
2024-01-05T03:05:08.792Z,99343.41
2024-01-05T03:07:36.284Z,99351.13
2024-01-05T03:10:04.049Z,99345.84
2024-01-05T03:12:31.699Z,99328.63
2024-01-05T03:14:59.315Z,99339.06
2024-01-05T03:17:28.281Z,99337.16
2024-01-05T03:19:55.814Z,99337.59
2024-01-05T03:22:23.316Z,99336.66
2024-01-05T03:24:50.820Z,99336.00
2024-01-05T03:27:18.307Z,99327.06
2024-01-05T03:29:45.867Z,99330.50
2024-01-05T03:32:13.389Z,99335.03
2024-01-05T03:34:42.252Z,99328.91
2024-01-05T03:37:09.768Z,99328.34
2024-01-05T03:39:37.477Z,99319.78
2024-01-05T03:42:05.366Z,99315.88
2024-01-05T03:44:32.861Z,99320.41
2024-01-05T03:47:00.359Z,99319.66
2024-01-05T03:49:27.948Z,99308.06
2024-01-05T03:51:57.061Z,99314.75
2024-01-05T03:54:24.557Z,99310.28
2024-01-05T03:56:52.116Z,99309.28
2024-01-05T03:59:19.622Z,99301.16
2024-01-05T04:01:48.745Z,99300.41
2024-01-05T04:04:16.976Z,99299.25
2024-01-05T04:06:45.495Z,99298.81
2024-01-05T04:09:14.687Z,99302.53
2024-01-05T04:11:42.490Z,99298.25
2024-01-05T04:14:10.275Z,99294.75
2024-01-05T04:16:37.804Z,99289.38
2024-01-05T04:19:05.410Z,99285.28
2024-01-05T04:21:33.211Z,99277.09
2024-01-05T04:24:00.783Z,99275.97
2024-01-05T04:26:29.780Z,99280.88
2024-01-05T04:28:57.278Z,99268.22
2024-01-05T04:31:24.969Z,99277.25
2024-01-05T04:33:52.686Z,99265.09
2024-01-05T04:36:20.768Z,99273.22
2024-01-05T04:38:48.890Z,99270.31
2024-01-05T04:41:17.580Z,99268.69
2024-01-05T04:43:46.431Z,99257.63
2024-01-05T04:46:13.959Z,99260.88
2024-01-05T04:48:41.633Z,99261.50
2024-01-05T04:51:09.280Z,99266.78
2024-01-05T04:53:36.788Z,99250.19
2024-01-05T04:56:04.316Z,99258.69
2024-01-05T04:58:31.862Z,99263.91
2024-01-05T05:01:00.926Z,99262.44
2024-01-05T05:03:30.865Z,99263.84
2024-01-05T05:05:58.628Z,99269.31
2024-01-05T05:08:26.129Z,99268.94
2024-01-05T05:10:53.722Z,99269.63
2024-01-05T05:13:21.214Z,99267.25
2024-01-05T05:15:48.708Z,99272.00
2024-01-05T05:18:17.709Z,99258.75
2024-01-05T05:20:45.362Z,99238.97
2024-01-05T05:23:12.948Z,99234.16
2024-01-05T05:25:40.497Z,99241.84
2024-01-05T05:28:07.998Z,99242.13
2024-01-05T05:30:35.547Z,99240.38
2024-01-05T05:33:03.245Z,99243.91
2024-01-05T05:35:32.149Z,99246.06
2024-01-05T05:37:59.624Z,99254.97
2024-01-05T05:40:27.425Z,99245.91
2024-01-05T05:42:54.910Z,99251.69
2024-01-05T05:45:22.489Z,99254.59
2024-01-05T05:47:50.093Z,99251.69
2024-01-05T05:50:17.668Z,99242.25
2024-01-05T05:52:46.886Z,99237.97
2024-01-05T05:55:14.692Z,99231.03
2024-01-05T05:57:42.290Z,99235.31
2024-01-05T06:00:12.090Z,99240.44
2024-01-05T06:02:39.848Z,99254.22
2024-01-05T06:05:08.407Z,99257.69
2024-01-05T06:07:35.983Z,99259.63
2024-01-05T06:10:06.167Z,99258.38
2024-01-05T06:12:33.732Z,99248.53
2024-01-05T06:15:01.518Z,99253.28
2024-01-05T06:17:29.111Z,99266.84
2024-01-05T06:19:56.704Z,99267.72
2024-01-05T06:22:24.360Z,99273.31
2024-01-05T06:24:52.040Z,99281.44
2024-01-05T06:27:25.638Z,99283.69
2024-01-05T06:30:00.430Z,99275.75
2024-01-05T06:32:28.055Z,99279.72
2024-01-05T06:34:55.701Z,99279.84
2024-01-05T06:37:23.380Z,99272.00
2024-01-05T06:39:50.984Z,99280.19
2024-01-05T06:42:18.481Z,99283.03
2024-01-05T06:44:48.508Z,99293.78
2024-01-05T06:47:16.077Z,99285.50
2024-01-05T06:49:43.795Z,99280.69
2024-01-05T06:52:11.443Z,99261.41
2024-01-05T06:54:39.101Z,99262.59
2024-01-05T06:57:08.219Z,99256.88
2024-01-05T06:59:37.579Z,99272.16
2024-01-05T07:02:07.153Z,99271.38
2024-01-05T07:04:34.665Z,99266.19
2024-01-05T07:07:02.177Z,99257.03
2024-01-05T07:09:29.730Z,99247.09
2024-01-05T07:11:57.277Z,99255.97
2024-01-05T07:14:24.850Z,99259.41
2024-01-05T07:16:52.411Z,99260.63
2024-01-05T07:19:21.423Z,99260.53
2024-01-05T07:21:49.006Z,99261.13
2024-01-05T07:24:16.924Z,99259.78
2024-01-05T07:26:44.495Z,99257.34
2024-01-05T07:29:12.261Z,99248.53
2024-01-05T07:31:39.770Z,99253.19
2024-01-05T07:34:08.385Z,99245.44
2024-01-05T07:36:37.403Z,99249.13
2024-01-05T07:39:05.773Z,99249.44
2024-01-05T07:41:33.296Z,99242.03
2024-01-05T07:44:00.772Z,99246.47
2024-01-05T07:46:28.391Z,99248.56
2024-01-05T07:48:56.289Z,99249.16
2024-01-05T07:51:24.711Z,99245.72
2024-01-05T07:53:53.583Z,99247.13
2024-01-05T07:56:21.072Z,99249.69
2024-01-05T07:58:48.734Z,99256.03
2024-01-05T08:01:16.959Z,99255.81
2024-01-05T08:03:45.524Z,99256.69
2024-01-05T08:06:17.253Z,99253.97
2024-01-05T08:08:45.850Z,99246.13
2024-01-05T08:11:14.820Z,99249.91
2024-01-05T08:13:43.195Z,99254.22
2024-01-05T08:16:11.738Z,99258.63
2024-01-05T08:18:40.163Z,99247.66
2024-01-05T08:21:08.000Z,99230.16
2024-01-05T08:23:35.668Z,99228.50
2024-01-05T08:26:04.878Z,99226.47
2024-01-05T08:28:33.821Z,99228.50
2024-01-05T08:31:01.455Z,99233.00
2024-01-05T08:33:29.176Z,99231.78
2024-01-05T08:36:04.561Z,99225.53
2024-01-05T08:38:32.059Z,99226.97
2024-01-05T08:40:59.554Z,99221.63
2024-01-05T08:43:27.142Z,99220.41
2024-01-05T08:45:56.015Z,99217.75
2024-01-05T08:48:23.604Z,99224.63
2024-01-05T08:50:51.359Z,99220.69
2024-01-05T08:53:21.945Z,99212.50
2024-01-05T08:55:49.460Z,99215.72
2024-01-05T08:58:17.099Z,99220.63
2024-01-05T09:00:44.891Z,99213.25
2024-01-05T09:03:14.011Z,99207.50
2024-01-05T09:05:41.656Z,99203.47
2024-01-05T09:08:09.223Z,99204.69
2024-01-05T09:10:36.705Z,99204.94
2024-01-05T09:13:04.799Z,99215.97
2024-01-05T09:15:32.331Z,99211.34
2024-01-05T09:18:00.039Z,99214.66
2024-01-05T09:20:28.996Z,99221.22
2024-01-05T09:22:56.523Z,99214.16
2024-01-05T09:25:24.117Z,99218.44
2024-01-05T09:27:51.736Z,99221.72
2024-01-05T09:30:19.499Z,99229.25
2024-01-05T09:32:47.456Z,99233.56
2024-01-05T09:35:15.806Z,99240.09
2024-01-05T09:37:44.662Z,99241.75
2024-01-05T09:40:13.322Z,99249.16
2024-01-05T09:42:42.331Z,99243.00
2024-01-05T09:45:12.970Z,99252.44
2024-01-05T09:47:41.789Z,99252.03
2024-01-05T09:50:11.643Z,99257.38
2024-01-05T09:52:40.033Z,99264.09
2024-01-05T09:55:09.628Z,99260.44
2024-01-05T09:57:38.462Z,99265.31
2024-01-05T10:00:08.899Z,99262.69
2024-01-05T10:02:42.598Z,99262.69
2024-01-05T10:05:10.739Z,99245.94
2024-01-05T10:07:43.017Z,99252.88
2024-01-05T10:10:13.696Z,99252.88
2024-01-05T10:12:41.664Z,99252.06
2024-01-05T10:15:12.822Z,99250.19
2024-01-05T10:17:40.942Z,99232.84
2024-01-05T10:20:16.553Z,99238.78
2024-01-05T10:22:47.572Z,99232.81
2024-01-05T10:25:17.892Z,99241.38
2024-01-05T10:27:46.042Z,99240.19
2024-01-05T10:30:26.142Z,99237.69
2024-01-05T10:33:04.506Z,99235.22
2024-01-05T10:35:32.152Z,99238.44
2024-01-05T10:38:07.282Z,99235.63
2024-01-05T10:40:36.156Z,99244.16
2024-01-05T10:43:09.802Z,99232.31
2024-01-05T10:45:39.055Z,99236.44
2024-01-05T10:48:10.571Z,99234.59
2024-01-05T10:50:40.910Z,99238.06
2024-01-05T10:53:09.762Z,99238.03
2024-01-05T10:55:39.847Z,99238.41
2024-01-05T10:58:09.205Z,99225.97
2024-01-05T11:00:36.819Z,99226.56
2024-01-05T11:03:12.757Z,99227.97
2024-01-05T11:05:42.603Z,99234.91
2024-01-05T11:08:20.414Z,99225.78
2024-01-05T11:11:11.767Z,99227.78
2024-01-05T11:13:56.548Z,99222.38
2024-01-05T11:16:45.899Z,99215.88
2024-01-05T11:19:33.637Z,99220.56
2024-01-05T11:22:05.884Z,99219.84
2024-01-05T11:24:34.816Z,99209.78
2024-01-05T11:27:30.543Z,99205.72
2024-01-05T11:29:59.136Z,99205.88
2024-01-05T11:32:37.528Z,99216.34
2024-01-05T11:35:26.079Z,99207.97
2024-01-05T11:37:54.078Z,99198.69
2024-01-05T11:40:29.336Z,99194.97
2024-01-05T11:42:58.831Z,99194.19
2024-01-05T11:45:49.859Z,99196.22
2024-01-05T11:48:47.996Z,99190.28
2024-01-05T11:51:15.939Z,99191.91
2024-01-05T11:53:45.860Z,99194.31
2024-01-05T11:56:18.780Z,99189.63
2024-01-05T11:58:48.088Z,99186.94
2024-01-05T12:01:17.266Z,99191.47
2024-01-05T12:03:45.561Z,99190.28
2024-01-05T12:06:15.784Z,99190.94
2024-01-05T12:08:43.556Z,99176.22
2024-01-05T12:11:12.960Z,99174.13
2024-01-05T12:13:41.122Z,99176.97
2024-01-05T12:16:11.380Z,99171.97
2024-01-05T12:18:46.838Z,99179.63
2024-01-05T12:21:15.988Z,99168.91
2024-01-05T12:23:52.403Z,99174.94
2024-01-05T12:26:20.261Z,99170.09
2024-01-05T12:28:49.210Z,99172.66
2024-01-05T12:31:19.224Z,99169.66
2024-01-05T12:33:48.017Z,99173.38
2024-01-05T12:36:27.056Z,99173.94
2024-01-05T12:38:54.643Z,99175.06
2024-01-05T12:41:22.339Z,99175.50
2024-01-05T12:43:52.549Z,99181.13
2024-01-05T12:46:24.254Z,99180.13
2024-01-05T12:48:52.629Z,99184.16
2024-01-05T12:51:23.156Z,99189.00
2024-01-05T12:53:59.374Z,99188.16
2024-01-05T12:56:26.900Z,99194.69
2024-01-05T12:58:55.003Z,99194.09
2024-01-05T13:01:25.645Z,99190.50
2024-01-05T13:03:54.282Z,99200.97
2024-01-05T13:06:23.746Z,99202.94
2024-01-05T13:08:52.338Z,99182.84
2024-01-05T13:11:21.893Z,99187.25
2024-01-05T13:13:50.807Z,99181.06
2024-01-05T13:16:19.013Z,99182.78
2024-01-05T13:18:48.274Z,99189.22
2024-01-05T13:21:16.060Z,99190.56
2024-01-05T13:23:44.923Z,99180.75
2024-01-05T13:26:12.549Z,99186.66
2024-01-05T13:28:41.393Z,99183.34
2024-01-05T13:31:09.586Z,99183.72
2024-01-05T13:33:37.548Z,99190.94
2024-01-05T13:36:07.367Z,99184.03
2024-01-05T13:38:34.892Z,99186.34
2024-01-05T13:41:02.402Z,99196.97
2024-01-05T13:43:28.924Z,99194.34
2024-01-05T13:45:56.448Z,99194.00
2024-01-05T13:48:24.184Z,99200.59
2024-01-05T13:50:51.857Z,99198.72
2024-01-05T13:53:20.711Z,99204.09
2024-01-05T13:55:49.127Z,99205.78
2024-01-05T13:58:16.831Z,99206.84
2024-01-05T14:00:45.752Z,99209.06
2024-01-05T14:03:13.442Z,99204.38
2024-01-05T14:05:40.999Z,99205.41
2024-01-05T14:08:08.660Z,99190.06
2024-01-05T14:10:37.484Z,99193.34
2024-01-05T14:13:05.366Z,99188.03
2024-01-05T14:15:32.892Z,99199.66
2024-01-05T14:18:01.391Z,99188.78
2024-01-05T14:20:30.438Z,99196.78
2024-01-05T14:22:58.071Z,99201.47
2024-01-05T14:25:25.678Z,99194.97
2024-01-05T14:27:54.571Z,99192.09
2024-01-05T14:30:22.145Z,99196.44
2024-01-05T14:32:49.684Z,99197.72
2024-01-05T14:35:17.432Z,99203.06
2024-01-05T14:37:45.008Z,99203.13
2024-01-05T14:40:13.688Z,99194.75
2024-01-05T14:42:41.408Z,99202.56
2024-01-05T14:45:10.888Z,99197.25
2024-01-05T14:47:41.879Z,99200.94
2024-01-05T14:50:10.732Z,99209.13
2024-01-05T14:52:38.210Z,99211.16
2024-01-05T14:55:06.685Z,99211.78
2024-01-05T14:57:34.545Z,99218.97
2024-01-05T15:00:02.371Z,99218.97
2024-01-05T15:02:32.770Z,99219.56
2024-01-05T15:05:00.248Z,99222.44
2024-01-05T15:07:27.822Z,99226.31
2024-01-05T15:09:55.366Z,99231.63
2024-01-05T15:12:22.917Z,99230.44
2024-01-05T15:14:50.438Z,99228.41
2024-01-05T15:17:17.965Z,99232.63
2024-01-05T15:19:47.792Z,99239.81
2024-01-05T15:22:15.399Z,99239.19
2024-01-05T15:24:46.268Z,99242.66
2024-01-05T15:27:14.406Z,99245.13
2024-01-05T15:29:42.000Z,99249.63
2024-01-05T15:32:09.519Z,99249.81
2024-01-05T15:34:37.104Z,99253.31
2024-01-05T15:37:06.102Z,99258.59
2024-01-05T15:39:33.679Z,99253.28
2024-01-05T15:42:01.330Z,99266.97
2024-01-05T15:44:28.826Z,99267.16
2024-01-05T15:46:56.314Z,99263.22
2024-01-05T15:49:25.365Z,99264.25
2024-01-05T15:51:53.064Z,99258.34
2024-01-05T15:54:21.989Z,99274.84
2024-01-05T15:56:49.564Z,99274.22
2024-01-05T15:59:17.167Z,99274.81
2024-01-05T16:01:48.262Z,99273.78
2024-01-05T16:04:15.938Z,99278.84
2024-01-05T16:06:43.750Z,99271.91
2024-01-05T16:09:11.382Z,99268.41
2024-01-05T16:11:40.501Z,99271.84
2024-01-05T16:14:08.132Z,99267.53
2024-01-05T16:16:40.153Z,99266.59
2024-01-05T16:19:08.386Z,99273.13
2024-01-05T16:21:37.872Z,99267.38
2024-01-05T16:24:07.629Z,99269.34
2024-01-05T16:26:35.263Z,99265.16
2024-01-05T16:29:04.095Z,99277.94
2024-01-05T16:31:31.768Z,99281.38
2024-01-05T16:33:59.636Z,99288.53
2024-01-05T16:36:27.286Z,99296.91
2024-01-05T16:38:54.944Z,99302.97
2024-01-05T16:41:24.880Z,99307.84
2024-01-05T16:43:53.020Z,99301.81
2024-01-05T16:46:22.187Z,99308.84
2024-01-05T16:48:53.622Z,99314.44
2024-01-05T16:51:22.507Z,99316.97
2024-01-05T16:54:11.435Z,99320.91
2024-01-05T16:56:45.669Z,99324.94
2024-01-05T16:59:15.929Z,99308.75
2024-01-05T17:01:44.875Z,99297.59
2024-01-05T17:04:12.482Z,99293.88
2024-01-05T17:06:42.984Z,99310.47
2024-01-05T17:09:11.527Z,99318.06
2024-01-05T17:11:39.090Z,99325.31
2024-01-05T17:14:06.953Z,99326.63
2024-01-05T17:16:34.428Z,99313.09
2024-01-05T17:19:03.501Z,99310.34
2024-01-05T17:21:31.174Z,99316.09
2024-01-05T17:23:58.728Z,99322.19
2024-01-05T17:26:26.935Z,99328.38
2024-01-05T17:28:54.484Z,99331.16
2024-01-05T17:31:22.158Z,99331.97
2024-01-05T17:33:49.940Z,99323.78
2024-01-05T17:36:20.326Z,99333.13
2024-01-05T17:38:50.443Z,99319.72
2024-01-05T17:41:17.932Z,99318.78
2024-01-05T17:43:45.473Z,99326.97
2024-01-05T17:46:12.963Z,99323.31
2024-01-05T17:48:40.674Z,99320.16
2024-01-05T17:51:08.323Z,99316.06
2024-01-05T17:53:39.411Z,99320.97
2024-01-05T17:56:07.857Z,99337.06
2024-01-05T17:58:35.456Z,99337.63
2024-01-05T18:01:07.182Z,99336.16
2024-01-05T18:03:37.130Z,99338.09
2024-01-05T18:06:09.811Z,99340.13
2024-01-05T18:08:38.800Z,99339.75
2024-01-05T18:11:06.383Z,99349.44
2024-01-05T18:13:33.871Z,99340.13
2024-01-05T18:16:02.932Z,99340.28
2024-01-05T18:18:31.791Z,99338.06
2024-01-05T18:20:59.372Z,99335.78
2024-01-05T18:23:26.849Z,99342.69
2024-01-05T18:25:56.539Z,99340.25
2024-01-05T18:28:24.797Z,99353.09
2024-01-05T18:30:52.360Z,99348.63
2024-01-05T18:33:21.286Z,99337.59
2024-01-05T18:35:49.003Z,99351.53
2024-01-05T18:38:16.717Z,99349.25
2024-01-05T18:40:44.665Z,99347.47
2024-01-05T18:43:14.806Z,99348.53
2024-01-05T18:45:42.455Z,99350.09
2024-01-05T18:48:10.328Z,99349.81
2024-01-05T18:50:39.518Z,99340.69
2024-01-05T18:53:07.068Z,99337.59
2024-01-05T18:55:34.638Z,99341.16
2024-01-05T18:58:02.124Z,99341.25
2024-01-05T19:00:31.362Z,99340.50
2024-01-05T19:02:58.904Z,99346.63
2024-01-05T19:05:26.675Z,99352.69
2024-01-05T19:07:54.275Z,99345.06
2024-01-05T19:10:21.795Z,99347.59
2024-01-05T19:12:49.345Z,99350.25
2024-01-05T19:15:16.912Z,99345.47
2024-01-05T19:17:45.884Z,99348.63
2024-01-05T19:20:13.551Z,99346.88
2024-01-05T19:22:42.977Z,99342.50
2024-01-05T19:25:10.625Z,99358.31
2024-01-05T19:27:38.283Z,99357.16
2024-01-05T19:30:07.938Z,99357.63
2024-01-05T19:32:35.871Z,99371.72
2024-01-05T19:35:06.888Z,99373.56
2024-01-05T19:37:34.390Z,99380.13
2024-01-05T19:40:01.888Z,99372.66
2024-01-05T19:42:29.530Z,99375.88
2024-01-05T19:44:58.007Z,99380.78
2024-01-05T19:47:26.361Z,99377.38
2024-01-05T19:49:54.224Z,99381.66
2024-01-05T19:52:23.316Z,99372.25
2024-01-05T19:54:54.525Z,99376.66
2024-01-05T19:57:22.509Z,99388.06
2024-01-05T19:59:50.179Z,99386.94
2024-01-05T20:02:17.829Z,99401.25
2024-01-05T20:04:46.025Z,99402.88
2024-01-05T20:07:14.489Z,99403.59
2024-01-05T20:09:44.215Z,99412.00
2024-01-05T20:12:17.457Z,99406.63
2024-01-05T20:14:45.356Z,99406.78
2024-01-05T20:17:13.795Z,99416.13
2024-01-05T20:19:42.710Z,99423.22
2024-01-05T20:22:10.456Z,99413.78
2024-01-05T20:24:38.183Z,99418.94
2024-01-05T20:27:10.091Z,99420.34
2024-01-05T20:29:41.260Z,99424.88
2024-01-05T20:32:09.817Z,99423.09
2024-01-05T20:34:37.781Z,99428.31
2024-01-05T20:37:05.807Z,99423.75
2024-01-05T20:39:33.351Z,99427.78
2024-01-05T20:42:00.870Z,99433.59
2024-01-05T20:44:29.667Z,99427.59
2024-01-05T20:46:58.000Z,99427.56
2024-01-05T20:49:25.705Z,99425.75
2024-01-05T20:51:55.362Z,99424.13
2024-01-05T20:54:22.909Z,99429.00
2024-01-05T20:56:50.404Z,99423.81
2024-01-05T20:59:18.182Z,99433.22
2024-01-05T21:01:47.140Z,99434.56
2024-01-05T21:04:16.383Z,99436.25
2024-01-05T21:06:45.003Z,99436.16
2024-01-05T21:09:13.193Z,99437.78
2024-01-05T21:11:40.963Z,99433.25
2024-01-05T21:14:08.471Z,99435.88
2024-01-05T21:16:40.976Z,99440.88
2024-01-05T21:19:10.192Z,99439.91
2024-01-05T21:21:41.908Z,99440.25
2024-01-05T21:24:09.586Z,99439.59
2024-01-05T21:26:41.568Z,99432.38
2024-01-05T21:29:09.126Z,99439.91
2024-01-05T21:31:36.973Z,99433.53
2024-01-05T21:34:04.643Z,99438.97
2024-01-05T21:36:33.519Z,99443.09
2024-01-05T21:39:01.456Z,99440.28
2024-01-05T21:41:30.422Z,99438.66
2024-01-05T21:43:58.013Z,99444.09
2024-01-05T21:46:25.848Z,99446.06
2024-01-05T21:48:54.486Z,99448.53
2024-01-05T21:51:22.260Z,99449.00
2024-01-05T21:53:51.155Z,99446.88
2024-01-05T21:56:18.845Z,99449.84
2024-01-05T21:58:46.642Z,99457.22
2024-01-05T22:01:14.402Z,99453.44
2024-01-05T22:03:42.063Z,99462.34
2024-01-05T22:06:10.003Z,99463.63
2024-01-05T22:08:37.609Z,99470.06
2024-01-05T22:11:08.230Z,99464.47
2024-01-05T22:13:35.736Z,99470.69
2024-01-05T22:16:03.774Z,99470.84
2024-01-05T22:18:34.210Z,99484.91
2024-01-05T22:21:10.325Z,99494.19
2024-01-05T22:23:41.474Z,99481.59
2024-01-05T22:26:19.800Z,99476.78
2024-01-05T22:28:49.233Z,99477.38
2024-01-05T22:31:17.010Z,99467.84
2024-01-05T22:33:44.905Z,99471.69
2024-01-05T22:36:13.726Z,99476.97
2024-01-05T22:38:41.920Z,99473.88
2024-01-05T22:41:12.388Z,99476.00
2024-01-05T22:43:41.272Z,99478.81
2024-01-05T22:46:09.801Z,99475.03
2024-01-05T22:48:38.455Z,99483.91
2024-01-05T22:51:06.754Z,99475.84
2024-01-05T22:53:34.358Z,99478.81
2024-01-05T22:56:01.917Z,99473.69
2024-01-05T22:58:30.781Z,99473.31
2024-01-05T23:00:58.384Z,99470.31
2024-01-05T23:03:26.091Z,99469.97
2024-01-05T23:05:53.641Z,99461.84
2024-01-05T23:08:24.023Z,99468.94
2024-01-05T23:10:53.446Z,99467.63
2024-01-05T23:13:20.992Z,99465.88
2024-01-05T23:15:50.336Z,99458.16
2024-01-05T23:18:18.043Z,99463.19
2024-01-05T23:20:45.695Z,99462.44
2024-01-05T23:23:13.188Z,99465.72
2024-01-05T23:25:40.669Z,99464.06
2024-01-05T23:28:08.142Z,99447.25
2024-01-05T23:30:35.735Z,99450.72
2024-01-05T23:33:05.191Z,99453.19
2024-01-05T23:35:32.848Z,99453.19
2024-01-05T23:38:00.330Z,99466.94
2024-01-05T23:40:27.876Z,99459.34
2024-01-05T23:42:55.540Z,99460.34
2024-01-05T23:45:23.168Z,99458.09
2024-01-05T23:47:52.731Z,99463.25
2024-01-05T23:50:21.721Z,99465.91
2024-01-05T23:52:49.956Z,99467.25
2024-01-05T23:55:19.274Z,99465.97
2024-01-05T23:57:46.925Z,99465.13
